Language: 


Des rapports , des résumés tant et plus, au choix de chacun....


Données statistiques de la station
Quotidien Rapport Décembre 14, 2017 Unités:  Anglais    Métrique   les deux
« Précédent Jour
Suivant Jour »
Quotidien Hebdomadaire Mensuel Annuel Actuel
  Haut: Bas: Moyen:
Température: TemperatureC °F 0.0 °F 4 °F
Pt de rosée: DewpointC °F 0.0 °F 3.1 °F
Humidité: Humidity % 0 % 91 %
Vitesse du vent: WindSpeedKMH mph 0.0 mph 13.3 mph
Rafales: WindSpeedGustKMH mph - -
Vent:- - SW
Pression: PressurehPa in 0.0 in -
Précipitation: 7.6 in    
Historical Graphs
 
 
Données statistiques pour Décembre 14, 2017
Heure Température Point de rosée Pression Vent Vitesse du vent Refales Humidité Pluie (taux horaire)
TemperatureC °F DewpointC °F PressurehPa in Calm     Humidity % HourlyPrecipMM in
00:01 5.0 °F 4.0 °F 989.1 in WSW 15.8 mph 16.6 mph 93 % 0.0 in
00:06 5.1 °F 4.0 °F 989.1 in WSW 21.9 mph 27.0 mph 94 % 0.0 in
00:11 5.3 °F 5.0 °F 989.1 in WSW 52.6 mph 55.8 mph 95 % 0.0 in
00:21 5.4 °F 5.0 °F 989.1 in WSW 24.8 mph 43.9 mph 97 % 1.0 in
00:26 5.3 °F 6.0 °F 989.1 in WSW 21.2 mph 37.0 mph 98 % 1.3 in
00:31 5.3 °F 6.0 °F 989.1 in WSW 20.1 mph 32.3 mph 98 % 1.3 in
00:41 5.2 °F 5.0 °F 989.1 in SW 23.3 mph 38.1 mph 97 % 1.3 in
00:46 5.1 °F 5.0 °F 989.1 in SW 24.8 mph 38.1 mph 97 % 1.3 in
00:51 5.1 °F 5.0 °F 989.1 in SW 22.7 mph 30.2 mph 97 % 1.5 in
00:56 5.1 °F 5.0 °F 988.0 in WSW 24.5 mph 28.0 mph 97 % 1.5 in
01:11 5.3 °F 5.0 °F 989.1 in WSW 28.0 mph 40.4 mph 97 % 1.3 in
01:16 5.4 °F 6.0 °F 989.1 in West 28.0 mph 40.4 mph 98 % 0.5 in
01:21 5.5 °F 6.0 °F 989.1 in Calm   31.4 mph 98 % 0.5 in
01:26 5.4 °F 5.0 °F 989.1 in West 12.2 mph 27.0 mph 97 % 0.3 in
01:37 5.4 °F 5.0 °F 989.1 in West 17.2 mph 17.2 mph 97 % 0.3 in
01:42 5.5 °F 6.0 °F 990.1 in NNW 22.4 mph 40.4 mph 96 % 0.3 in
01:52 5.4 °F 3.0 °F 990.1 in WSW 24.8 mph 41.0 mph 86 % 0.0 in
02:02 5.3 °F 3.0 °F 991.1 in West 21.6 mph 32.8 mph 84 % 0.0 in
02:07 5.5 °F 3.0 °F 991.1 in WNW 17.7 mph 37.0 mph 82 % 0.0 in
02:12 5.5 °F 3.0 °F 991.1 in WNW 22.7 mph 37.0 mph 82 % 0.0 in
02:22 5.5 °F 3.0 °F 991.1 in West 25.9 mph 51.2 mph 79 % 0.0 in
02:27 5.5 °F 2.0 °F 991.1 in WSW 43.9 mph 51.2 mph 78 % 0.0 in
02:32 5.5 °F 2.0 °F 991.1 in WNW 44.6 mph 44.6 mph 78 % 0.0 in
02:37 5.7 °F 2.0 °F 991.1 in South 21.2 mph 44.6 mph 75 % 0.0 in
02:42 5.7 °F 2.0 °F 991.1 in West 31.7 mph 44.6 mph 75 % 0.0 in
02:47 5.7 °F 2.0 °F 991.1 in West 34.6 mph 47.1 mph 75 % 0.0 in
02:52 5.6 °F 2.0 °F 991.1 in West 22.7 mph 47.1 mph 75 % 0.0 in
02:57 5.6 °F 2.0 °F 992.1 in WSW 20.9 mph 43.6 mph 75 % 0.0 in
03:13 0.0 °F 2.0 °F 993.1 in West 26.7 mph 43.6 mph 0 % 0.0 in
03:23 5.1 °F 1.0 °F 993.1 in West 25.9 mph 43.9 mph 72 % 0.0 in
03:28 5.0 °F 1.0 °F 993.1 in West 24.5 mph 38.9 mph 73 % 0.0 in
03:33 5.0 °F 1.0 °F 993.1 in West 23.0 mph 38.9 mph 72 % 0.0 in
03:38 4.8 °F 0.0 °F 993.1 in West 13.7 mph 37.8 mph 73 % 0.0 in
03:43 4.8 °F 0.0 °F 993.1 in West 28.8 mph 41.4 mph 73 % 0.0 in
03:58 4.6 °F 1.0 °F 993.1 in West 25.3 mph 37.8 mph 74 % 0.0 in
04:03 4.7 °F 0.0 °F 993.1 in West 20.6 mph 38.1 mph 73 % 0.0 in
04:08 4.6 °F 1.0 °F 993.1 in WSW 24.5 mph 38.1 mph 74 % 0.0 in
04:14 4.4 °F 1.0 °F 993.1 in West 16.9 mph 35.2 mph 76 % 0.0 in
04:20 4.4 °F 1.0 °F 993.1 in WSW 14.8 mph 29.1 mph 76 % 0.0 in
04:21 4.4 °F 1.0 °F 993.1 in WSW 17.2 mph 29.1 mph 76 % 0.0 in
04:22 4.4 °F 1.0 °F 993.1 in West 17.7 mph 29.1 mph 76 % 0.0 in
04:23 4.4 °F 1.0 °F 993.1 in WSW 20.6 mph 30.9 mph 76 % 0.0 in
04:26 4.5 °F 1.0 °F 994.1 in WSW 20.9 mph 30.9 mph 76 % 0.0 in
04:28 4.5 °F 1.0 °F 994.1 in West 17.2 mph 30.9 mph 76 % 0.0 in
04:31 4.6 °F 1.0 °F 994.1 in SSW 13.7 mph 30.9 mph 77 % 0.0 in
04:36 4.6 °F 1.0 °F 994.1 in West 14.0 mph 31.7 mph 77 % 0.0 in
04:41 4.6 °F 1.0 °F 994.1 in West 15.8 mph 31.7 mph 77 % 0.0 in
04:51 4.5 °F 1.0 °F 994.1 in West 16.9 mph 25.3 mph 77 % 0.0 in
04:52 4.5 °F 1.0 °F 994.1 in WSW 13.7 mph 23.8 mph 77 % 0.0 in
04:56 4.5 °F 1.0 °F 994.1 in WSW 20.1 mph 24.5 mph 78 % 0.0 in
05:05 4.6 °F 1.0 °F 994.1 in West 16.6 mph 27.4 mph 78 % 0.0 in
05:10 4.5 °F 1.0 °F 994.1 in WSW 21.2 mph 27.4 mph 78 % 0.0 in
05:15 4.4 °F 1.0 °F 994.1 in West 19.1 mph 27.4 mph 78 % 0.0 in
05:20 4.3 °F 1.0 °F 994.1 in West 12.2 mph 19.8 mph 79 % 0.0 in
05:26 4.2 °F 1.0 °F 994.1 in West 20.9 mph 20.9 mph 79 % 0.0 in
05:31 4.3 °F 1.0 °F 994.1 in WSW 15.8 mph 25.6 mph 80 % 0.0 in
05:36 4.6 °F 2.0 °F 994.1 in West 11.1 mph 25.6 mph 80 % 0.0 in
05:41 4.7 °F 2.0 °F 994.1 in West 13.0 mph 22.7 mph 81 % 0.0 in
05:44 4.7 °F 2.0 °F 994.1 in WSW 14.0 mph 22.7 mph 81 % 0.0 in
05:59 5.1 °F 2.0 °F 994.1 in WSW 16.9 mph 27.4 mph 81 % 0.0 in
06:08 5.1 °F 2.0 °F 994.1 in West 24.8 mph 28.5 mph 81 % 0.0 in
06:09 5.4 °F 3.0 °F 994.1 in West 22.7 mph 28.5 mph 80 % 0.0 in
06:10 5.4 °F 3.0 °F 994.1 in WSW 19.5 mph 28.5 mph 80 % 0.0 in
06:14 5.5 °F 3.0 °F 994.1 in West 16.6 mph 28.5 mph 79 % 0.0 in
06:20 5.5 °F 3.0 °F 994.1 in West 22.7 mph 24.8 mph 79 % 0.0 in
06:24 5.6 °F 3.0 °F 994.1 in West 17.7 mph 24.8 mph 79 % 0.0 in
06:25 5.6 °F 3.0 °F 994.1 in WSW 23.8 mph 24.8 mph 79 % 0.0 in
06:30 5.5 °F 3.0 °F 994.1 in West 12.2 mph 23.8 mph 80 % 0.0 in
06:35 5.5 °F 3.0 °F 994.1 in West 15.4 mph 20.1 mph 80 % 0.0 in
06:40 5.5 °F 3.0 °F 994.1 in West 11.9 mph 16.9 mph 80 % 0.0 in
06:45 5.2 °F 3.0 °F 994.1 in WSW 9.7 mph 16.9 mph 82 % 0.0 in
06:50 5.3 °F 3.0 °F 994.1 in WSW 9.7 mph 16.9 mph 82 % 0.0 in
06:55 5.3 °F 3.0 °F 994.1 in West 10.1 mph 13.7 mph 82 % 0.0 in
07:00 5.2 °F 3.0 °F 993.1 in WSW 7.9 mph 12.2 mph 82 % 0.0 in
07:05 5.2 °F 3.0 °F 993.1 in WSW 8.7 mph 11.6 mph 82 % 0.0 in
07:10 5.0 °F 3.0 °F 993.1 in WSW 7.9 mph 11.6 mph 83 % 0.0 in
07:21 4.6 °F 2.0 °F 994.1 in WSW 6.9 mph 10.1 mph 84 % 0.0 in
07:26 4.6 °F 2.0 °F 993.1 in West 9.0 mph 11.6 mph 84 % 0.0 in
07:36 4.8 °F 3.0 °F 993.1 in WSW 9.7 mph 11.6 mph 85 % 0.0 in
07:46 5.3 °F 3.0 °F 994.1 in WSW 17.7 mph 25.9 mph 85 % 0.0 in
08:01 5.7 °F 3.0 °F 994.1 in West 16.9 mph 18.3 mph 83 % 0.0 in
08:06 5.7 °F 3.0 °F 994.1 in WSW 11.9 mph 16.9 mph 83 % 0.0 in
08:13 5.7 °F 3.0 °F 994.1 in WSW 13.0 mph 19.5 mph 83 % 0.0 in
08:16 5.5 °F 3.0 °F 994.1 in West 16.9 mph 26.7 mph 82 % 0.0 in
08:17 5.5 °F 3.0 °F 994.1 in West 16.9 mph 26.7 mph 82 % 0.0 in
08:36 5.6 °F 3.0 °F 994.1 in WSW 28.0 mph 28.0 mph 82 % 0.0 in
08:42 5.6 °F 3.0 °F 994.1 in West 6.1 mph 28.0 mph 82 % 0.0 in
08:47 5.2 °F 3.0 °F 994.1 in WSW 17.2 mph 32.8 mph 86 % 0.0 in
08:52 5.1 °F 3.0 °F 994.1 in WSW 10.1 mph 32.8 mph 86 % 0.3 in
08:55 5.0 °F 3.0 °F 994.1 in WSW 16.3 mph 32.8 mph 86 % 0.3 in
09:02 4.9 °F 3.0 °F 994.1 in WSW 13.0 mph 16.3 mph 87 % 0.3 in
09:17 4.7 °F 3.0 °F 994.1 in SW 15.8 mph 24.5 mph 91 % 0.3 in
09:22 4.7 °F 3.0 °F 994.1 in SSW 12.2 mph 24.5 mph 91 % 0.3 in
09:27 4.8 °F 3.0 °F 994.1 in SW 11.6 mph 20.6 mph 92 % 0.3 in
09:32 4.7 °F 3.0 °F 994.1 in SSW 12.2 mph 20.6 mph 92 % 0.3 in
09:37 4.7 °F 3.0 °F 994.1 in SW 15.4 mph 17.7 mph 92 % 0.3 in
09:39 4.7 °F 3.0 °F 994.1 in WSW 10.5 mph 17.7 mph 92 % 0.3 in
09:42 4.7 °F 3.0 °F 994.1 in SSW 17.7 mph 17.7 mph 92 % 0.3 in
09:47 4.7 °F 3.0 °F 994.1 in SSW 28.0 mph 28.0 mph 92 % 0.0 in
09:48 4.7 °F 3.0 °F 994.1 in SSW 20.1 mph 28.0 mph 92 % 0.0 in
09:52 4.7 °F 3.0 °F 994.1 in WSW 24.8 mph 28.0 mph 92 % 0.0 in
09:57 4.6 °F 4.0 °F 994.1 in WSW 12.6 mph 24.8 mph 93 % 0.0 in
10:02 4.5 °F 4.0 °F 994.1 in SW 13.0 mph 28.0 mph 93 % 0.0 in
10:07 4.5 °F 4.0 °F 994.1 in SW 10.5 mph 28.0 mph 93 % 0.0 in
10:12 4.3 °F 3.0 °F 994.1 in WSW 11.9 mph 24.5 mph 93 % 0.0 in
10:17 4.2 °F 3.0 °F 994.1 in WSW 13.0 mph 20.9 mph 93 % 0.0 in
10:19 4.2 °F 3.0 °F 994.1 in SSW 12.6 mph 20.9 mph 93 % 0.0 in
10:22 4.2 °F 3.0 °F 994.1 in SSW 12.2 mph 18.0 mph 93 % 0.0 in
10:27 4.1 °F 3.0 °F 994.1 in WSW 11.9 mph 15.4 mph 93 % 0.0 in
10:32 4.1 °F 3.0 °F 994.1 in SW 10.8 mph 17.2 mph 93 % 0.0 in
10:37 4.1 °F 3.0 °F 994.1 in SSW 10.5 mph 17.2 mph 93 % 0.0 in
10:42 4.1 °F 3.0 °F 995.1 in WSW 10.5 mph 16.9 mph 93 % 0.0 in
10:47 4.1 °F 3.0 °F 995.1 in SW 11.6 mph 16.9 mph 95 % 0.0 in
10:52 4.1 °F 3.0 °F 995.1 in SW 14.0 mph 19.5 mph 95 % 0.0 in
10:57 4.1 °F 3.0 °F 994.1 in WSW 12.6 mph 19.5 mph 95 % 0.0 in
10:59 4.3 °F 4.0 °F 994.1 in SSW 13.7 mph 19.5 mph 96 % 0.0 in
11:02 4.3 °F 4.0 °F 994.1 in WSW 20.1 mph 22.4 mph 96 % 0.0 in
11:07 4.3 °F 4.0 °F 994.1 in WSW 9.3 mph 22.4 mph 96 % 0.0 in
11:12 4.3 °F 4.0 °F 994.1 in SW 13.0 mph 19.5 mph 96 % 0.0 in
11:17 4.5 °F 4.0 °F 994.1 in SW 11.9 mph 18.0 mph 96 % 0.0 in
11:22 4.4 °F 4.0 °F 994.1 in SSW 14.8 mph 16.3 mph 96 % 0.0 in
11:24 4.4 °F 4.0 °F 994.1 in SSW 10.5 mph 15.8 mph 96 % 0.0 in
11:29 4.4 °F 4.0 °F 994.1 in WSW 14.0 mph 18.3 mph 96 % 0.0 in
11:34 4.4 °F 4.0 °F 994.1 in WSW 19.8 mph 19.8 mph 96 % 0.0 in
11:38 4.4 °F 4.0 °F 994.1 in SSW 14.0 mph 20.9 mph 96 % 0.0 in
11:40 4.4 °F 4.0 °F 994.1 in WSW 14.8 mph 20.9 mph 96 % 0.0 in
11:45 4.4 °F 4.0 °F 994.1 in SW 16.6 mph 20.9 mph 96 % 0.0 in
11:50 4.4 °F 4.0 °F 994.1 in SSW 16.3 mph 24.8 mph 96 % 0.0 in
11:55 4.6 °F 4.0 °F 994.1 in SSW 11.1 mph 24.8 mph 95 % 0.0 in
12:01 4.7 °F 4.0 °F 994.1 in WSW 13.7 mph 21.9 mph 95 % 0.0 in
12:03 4.7 °F 4.0 °F 994.1 in SW 17.7 mph 24.8 mph 95 % 0.0 in
12:04 4.7 °F 4.0 °F 994.1 in SW 12.2 mph 24.8 mph 95 % 0.0 in
12:08 4.7 °F 4.0 °F 994.1 in SSW 13.7 mph 24.8 mph 95 % 0.0 in
12:13 4.7 °F 4.0 °F 994.1 in SSW 16.6 mph 20.1 mph 95 % 0.0 in
12:18 4.7 °F 4.0 °F 994.1 in SW 15.1 mph 20.1 mph 95 % 0.0 in
12:23 4.7 °F 4.0 °F 994.1 in WSW 18.0 mph 21.9 mph 95 % 0.0 in
12:26 4.7 °F 4.0 °F 993.1 in SW 11.9 mph 21.9 mph 95 % 0.0 in
12:31 4.7 °F 4.0 °F 993.1 in WSW 10.5 mph 21.9 mph 95 % 0.0 in
12:36 4.6 °F 4.0 °F 993.1 in WSW 13.7 mph 17.7 mph 95 % 0.0 in
12:40 4.6 °F 4.0 °F 993.1 in West 9.7 mph 16.9 mph 95 % 0.0 in
12:43 4.6 °F 4.0 °F 993.1 in SSW 7.9 mph 16.9 mph 95 % 0.0 in
12:48 4.6 °F 4.0 °F 993.1 in SW 12.2 mph 16.9 mph 95 % 0.0 in
12:53 4.6 °F 4.0 °F 993.1 in WSW 13.0 mph 17.7 mph 95 % 0.0 in
12:58 4.7 °F 4.0 °F 993.1 in SW 13.0 mph 24.8 mph 95 % 0.0 in
13:03 4.8 °F 4.0 °F 993.1 in SW 12.6 mph 24.8 mph 95 % 0.0 in
13:08 4.8 °F 4.0 °F 993.1 in SW 16.3 mph 23.3 mph 95 % 0.0 in
13:09 4.8 °F 4.0 °F 993.1 in SSW 13.0 mph 23.3 mph 95 % 0.0 in
13:14 4.8 °F 4.0 °F 992.1 in SSW 13.7 mph 20.1 mph 95 % 0.0 in
13:19 4.8 °F 4.0 °F 992.1 in WSW 15.4 mph 20.1 mph 95 % 0.0 in
13:24 4.8 °F 4.0 °F 992.1 in WSW 11.6 mph 19.5 mph 95 % 0.0 in
13:29 0.0 °F 4.0 °F 993.1 in SW 13.7 mph 18.0 mph 0 % 0.0 in
13:34 0.0 °F 4.0 °F 993.1 in WSW 13.0 mph 20.6 mph 0 % 0.0 in
13:39 0.0 °F 4.0 °F 0.0 in SW 10.5 mph 10.5 mph 0 % 0.0 in
13:44 4.9 °F 4.0 °F 993.1 in WSW 23.8 mph 27.7 mph 94 % 0.0 in
13:49 5.0 °F 4.0 °F 993.1 in WSW 19.1 mph 27.7 mph 94 % 0.0 in
13:54 5.0 °F 5.0 °F 993.1 in WSW 14.3 mph 25.6 mph 95 % 0.0 in
13:59 5.0 °F 5.0 °F 992.1 in SSW 16.6 mph 25.6 mph 95 % 0.0 in
14:03 5.1 °F 5.0 °F 992.1 in WSW 16.9 mph 21.2 mph 95 % 0.0 in
14:04 5.1 °F 5.0 °F 992.1 in WSW 20.1 mph 23.0 mph 95 % 0.0 in
14:09 5.1 °F 5.0 °F 992.1 in WSW 23.8 mph 29.1 mph 95 % 0.0 in
14:14 5.1 °F 5.0 °F 992.1 in SW 20.9 mph 30.6 mph 95 % 0.3 in
14:19 5.1 °F 5.0 °F 992.1 in SW 14.0 mph 30.6 mph 95 % 0.3 in
14:24 5.1 °F 5.0 °F 992.1 in SW 10.5 mph 25.9 mph 95 % 0.3 in
14:29 5.1 °F 5.0 °F 992.1 in SSW 24.8 mph 24.8 mph 95 % 0.3 in
14:30 5.1 °F 5.0 °F 992.1 in SW 16.3 mph 24.8 mph 95 % 0.3 in
14:35 5.0 °F 5.0 °F 992.1 in WSW 16.9 mph 27.7 mph 96 % 0.3 in
14:40 5.0 °F 5.0 °F 992.1 in WSW 13.0 mph 27.7 mph 96 % 0.5 in
14:45 5.0 °F 5.0 °F 992.1 in SW 15.4 mph 23.8 mph 96 % 0.5 in
14:50 5.0 °F 5.0 °F 992.1 in SW 16.3 mph 22.7 mph 96 % 0.5 in
14:52 5.0 °F 5.0 °F 992.1 in SSW 9.3 mph 22.7 mph 96 % 0.5 in
14:57 4.8 °F 4.0 °F 991.1 in SW 9.7 mph 22.7 mph 97 % 0.5 in
15:02 4.8 °F 4.0 °F 991.1 in SSW 12.6 mph 20.9 mph 97 % 0.5 in
15:07 4.8 °F 4.0 °F 991.1 in SW 12.6 mph 16.9 mph 97 % 0.5 in
15:12 4.8 °F 4.0 °F 991.1 in SW 8.7 mph 16.6 mph 97 % 0.5 in
15:17 4.8 °F 4.0 °F 991.1 in SSW 10.5 mph 16.6 mph 97 % 0.3 in
15:22 4.8 °F 5.0 °F 991.1 in SW 12.2 mph 16.9 mph 98 % 0.3 in
15:27 4.8 °F 5.0 °F 991.1 in SW 13.0 mph 20.1 mph 98 % 0.3 in
15:32 4.8 °F 5.0 °F 991.1 in SSW 16.9 mph 20.9 mph 98 % 0.5 in
15:37 4.8 °F 5.0 °F 991.1 in SSW 19.5 mph 20.9 mph 98 % 1.3 in
15:43 4.8 °F 5.0 °F 990.1 in SW 12.2 mph 20.9 mph 98 % 0.8 in
15:48 4.8 °F 5.0 °F 990.1 in WSW 14.0 mph 19.8 mph 98 % 0.8 in
15:53 4.6 °F 5.0 °F 990.1 in SW 15.8 mph 19.5 mph 98 % 0.8 in
15:58 4.6 °F 5.0 °F 990.1 in SSW 13.7 mph 20.6 mph 98 % 0.8 in
16:03 4.6 °F 5.0 °F 990.1 in SW 19.1 mph 20.6 mph 98 % 0.8 in
16:04 4.4 °F 4.0 °F 990.1 in SW 17.7 mph 21.2 mph 98 % 0.8 in
16:05 4.4 °F 4.0 °F 990.1 in SSW 13.7 mph 21.2 mph 98 % 0.8 in
16:10 4.3 °F 4.0 °F 991.1 in SSW 19.5 mph 23.8 mph 98 % 0.8 in
16:15 4.2 °F 4.0 °F 991.1 in WSW 19.8 mph 24.8 mph 98 % 0.8 in
16:19 4.2 °F 4.0 °F 991.1 in SSW 12.6 mph 31.4 mph 98 % 0.8 in
16:21 4.2 °F 4.0 °F 991.1 in South 13.7 mph 31.4 mph 98 % 0.8 in
16:26 4.0 °F 4.0 °F 991.1 in SW 11.9 mph 21.2 mph 98 % 0.8 in
16:31 4.0 °F 4.0 °F 991.1 in SW 12.2 mph 19.5 mph 98 % 0.5 in
16:36 4.0 °F 4.0 °F 991.1 in SW 15.8 mph 23.8 mph 98 % 0.3 in
16:41 4.0 °F 4.0 °F 991.1 in WSW 16.3 mph 23.8 mph 98 % 0.0 in
16:46 4.0 °F 4.0 °F 991.1 in SSW 16.9 mph 19.8 mph 98 % 0.0 in
16:51 4.0 °F 4.0 °F 991.1 in SW 14.0 mph 21.6 mph 98 % 0.0 in
16:56 4.0 °F 4.0 °F 990.1 in SSW 12.6 mph 21.6 mph 98 % 0.0 in
17:01 4.0 °F 4.0 °F 990.1 in SW 10.5 mph 21.2 mph 98 % 0.0 in
17:06 4.0 °F 4.0 °F 990.1 in SSW 16.6 mph 24.8 mph 98 % 0.0 in
17:09 4.0 °F 4.0 °F 990.1 in WSW 12.6 mph 24.8 mph 98 % 0.0 in
17:12 4.0 °F 4.0 °F 990.1 in SW 19.8 mph 24.8 mph 98 % 0.0 in
17:17 4.0 °F 4.0 °F 990.1 in WSW 17.7 mph 22.7 mph 98 % 0.3 in
17:22 4.1 °F 4.0 °F 990.1 in WSW 20.6 mph 24.5 mph 98 % 1.0 in
17:27 3.8 °F 4.0 °F 991.1 in West 17.2 mph 24.8 mph 98 % 1.5 in
17:32 3.5 °F 4.0 °F 991.1 in WSW 16.9 mph 28.0 mph 98 % 2.3 in
17:33 3.4 °F 3.0 °F 991.1 in West 16.6 mph 28.0 mph 98 % 2.5 in
17:37 3.3 °F 3.0 °F 991.1 in WSW 13.0 mph 28.0 mph 98 % 2.8 in
17:42 3.3 °F 3.0 °F 990.1 in SSW 9.0 mph 23.8 mph 98 % 3.8 in
17:47 3.0 °F 3.0 °F 990.1 in SW 6.4 mph 20.1 mph 98 % 4.1 in
17:52 3.0 °F 3.0 °F 990.1 in South 7.6 mph 14.0 mph 98 % 4.1 in
17:57 2.9 °F 3.0 °F 989.1 in SSW 5.0 mph 12.2 mph 98 % 4.1 in
18:00 2.9 °F 3.0 °F 989.1 in SSW 6.9 mph 11.6 mph 98 % 4.1 in
18:05 2.8 °F 3.0 °F 989.1 in South 7.9 mph 11.6 mph 98 % 4.1 in
18:10 2.7 °F 3.0 °F 989.1 in SSW 6.1 mph 11.9 mph 98 % 4.1 in
18:15 2.6 °F 3.0 °F 989.1 in SSW 6.1 mph 11.9 mph 98 % 3.8 in
18:20 2.6 °F 3.0 °F 989.1 in SSW 9.7 mph 12.6 mph 98 % 3.3 in
18:22 2.6 °F 3.0 °F 989.1 in SW 12.6 mph 12.6 mph 98 % 3.0 in
18:27 2.6 °F 3.0 °F 990.1 in Calm   12.6 mph 98 % 2.5 in
18:28 2.6 °F 3.0 °F 990.1 in Calm   12.6 mph 98 % 2.5 in
18:32 2.6 °F 3.0 °F 990.1 in SSW 11.6 mph 11.9 mph 98 % 1.8 in
18:37 2.6 °F 3.0 °F 990.1 in SSW 10.5 mph 14.0 mph 98 % 1.3 in
18:38 2.6 °F 3.0 °F 990.1 in SSW 10.1 mph 14.0 mph 98 % 1.3 in
18:43 2.6 °F 3.0 °F 989.1 in SSW 5.8 mph 14.0 mph 98 % 0.3 in
18:48 2.5 °F 3.0 °F 989.1 in SSW 6.1 mph 14.0 mph 98 % 0.0 in
18:53 2.5 °F 3.0 °F 989.1 in South 9.0 mph 14.0 mph 98 % 0.3 in
18:58 2.5 °F 3.0 °F 990.1 in SSW 9.3 mph 14.0 mph 98 % 0.3 in
19:03 2.5 °F 3.0 °F 990.1 in SSW 6.9 mph 14.0 mph 98 % 0.3 in
19:08 2.6 °F 3.0 °F 990.1 in South 7.9 mph 14.0 mph 98 % 0.3 in
19:13 2.6 °F 3.0 °F 990.1 in South 11.9 mph 14.0 mph 98 % 0.3 in
19:14 2.6 °F 3.0 °F 990.1 in SSW 12.6 mph 14.0 mph 98 % 0.3 in
19:18 2.7 °F 3.0 °F 990.1 in SSW 10.1 mph 16.3 mph 98 % 0.3 in
19:20 2.7 °F 3.0 °F 990.1 in SW 12.6 mph 16.3 mph 98 % 0.3 in
19:25 2.8 °F 3.0 °F 990.1 in SSW 10.1 mph 16.3 mph 98 % 0.3 in
19:26 2.8 °F 3.0 °F 989.1 in SSW 8.7 mph 14.0 mph 98 % 0.3 in
19:31 2.9 °F 3.0 °F 989.1 in SW 9.3 mph 12.6 mph 98 % 0.3 in
19:36 2.9 °F 3.0 °F 989.1 in WSW 10.8 mph 12.6 mph 98 % 0.3 in
19:41 3.0 °F 3.0 °F 990.1 in SW 7.6 mph 16.3 mph 98 % 0.3 in
19:46 3.0 °F 3.0 °F 990.1 in SW 11.9 mph 17.2 mph 98 % 0.3 in
19:51 3.0 °F 3.0 °F 990.1 in SSW 9.3 mph 17.2 mph 98 % 0.3 in
19:53 3.0 °F 3.0 °F 990.1 in SSW 10.5 mph 17.2 mph 98 % 0.0 in
19:58 2.9 °F 3.0 °F 989.1 in SW 11.9 mph 13.7 mph 98 % 0.0 in
20:03 2.9 °F 3.0 °F 989.1 in SW 6.4 mph 14.0 mph 98 % 0.0 in
20:08 2.9 °F 3.0 °F 989.1 in SW 9.0 mph 14.0 mph 98 % 0.0 in
20:13 2.9 °F 3.0 °F 989.1 in SSW 10.1 mph 12.6 mph 98 % 0.0 in
20:18 2.9 °F 3.0 °F 989.1 in South 5.0 mph 13.7 mph 98 % 0.0 in
20:19 2.9 °F 3.0 °F 989.1 in SW 8.7 mph 13.7 mph 98 % 0.0 in
20:23 2.9 °F 3.0 °F 989.1 in SSW 6.4 mph 13.7 mph 98 % 0.0 in
20:25 2.8 °F 3.0 °F 989.1 in SSW 7.9 mph 12.6 mph 98 % 0.0 in
20:28 2.8 °F 3.0 °F 989.1 in SSW 12.6 mph 13.7 mph 98 % 0.0 in
20:33 2.8 °F 3.0 °F 989.1 in SSW 15.8 mph 20.9 mph 98 % 0.0 in
20:38 2.8 °F 3.0 °F 989.1 in SSW 20.9 mph 20.9 mph 98 % 0.0 in
20:43 2.8 °F 3.0 °F 989.1 in WSW 11.9 mph 20.9 mph 98 % 0.0 in
20:48 2.8 °F 3.0 °F 989.1 in SSW 9.7 mph 20.9 mph 98 % 0.0 in
20:53 2.7 °F 3.0 °F 989.1 in SW 10.1 mph 15.4 mph 98 % 0.0 in
20:58 2.7 °F 3.0 °F 989.1 in SW 10.5 mph 14.0 mph 98 % 0.0 in
21:03 2.6 °F 3.0 °F 989.1 in SSW 5.0 mph 12.6 mph 98 % 0.0 in
21:08 2.5 °F 3.0 °F 989.1 in SW 6.4 mph 14.0 mph 98 % 0.0 in
21:13 2.5 °F 3.0 °F 989.1 in Calm   14.0 mph 98 % 0.0 in
21:18 2.4 °F 3.0 °F 989.1 in SW 2.1 mph 10.1 mph 98 % 0.0 in
21:23 2.3 °F 3.0 °F 989.1 in SSW 4.0 mph 9.7 mph 98 % 0.0 in
21:28 2.3 °F 3.0 °F 989.1 in Calm   7.9 mph 98 % 0.0 in
21:34 2.2 °F 2.0 °F 989.1 in Calm   6.4 mph 98 % 0.0 in
21:39 2.1 °F 2.0 °F 989.1 in Calm   6.4 mph 98 % 0.0 in
21:44 2.1 °F 2.0 °F 989.1 in Calm   5.8 mph 98 % 0.0 in
21:49 2.0 °F 2.0 °F 989.1 in SW 5.0 mph 5.8 mph 98 % 0.0 in
21:54 2.0 °F 2.0 °F 989.1 in Calm   5.0 mph 98 % 0.0 in
21:59 1.9 °F 2.0 °F 989.1 in Calm   4.7 mph 98 % 0.0 in
22:04 1.9 °F 2.0 °F 989.1 in Calm   4.3 mph 98 % 0.0 in
22:09 1.9 °F 2.0 °F 989.1 in WSW 4.7 mph 6.4 mph 98 % 0.0 in
22:10 1.9 °F 2.0 °F 989.1 in WSW 4.3 mph 6.4 mph 98 % 0.0 in
22:15 1.8 °F 2.0 °F 989.1 in Calm   6.4 mph 98 % 0.0 in
22:20 1.7 °F 2.0 °F 989.1 in Calm   6.1 mph 98 % 0.0 in
22:22 1.6 °F 2.0 °F 989.1 in Calm   6.4 mph 98 % 0.0 in
22:25 1.5 °F 2.0 °F 989.1 in West 6.4 mph 6.4 mph 98 % 0.0 in
22:30 1.4 °F 1.0 °F 989.1 in Calm   6.9 mph 98 % 0.0 in
22:35 1.3 °F 1.0 °F 989.1 in Calm   6.9 mph 98 % 0.0 in
22:40 1.1 °F 1.0 °F 989.1 in Calm     98 % 0.0 in
22:45 1.1 °F 1.0 °F 989.1 in Calm     98 % 0.0 in
22:48 1.1 °F 1.0 °F 989.1 in Calm     98 % 0.0 in
22:53 1.1 °F 1.0 °F 989.1 in Calm     98 % 0.0 in
22:58 1.1 °F 1.0 °F 990.1 in Calm     98 % 0.0 in
23:03 1.1 °F 1.0 °F 990.1 in South 1.4 mph 1.8 mph 98 % 0.0 in
23:09 1.0 °F 1.0 °F 990.1 in Calm   5.0 mph 98 % 0.0 in
23:14 1.0 °F 1.0 °F 989.1 in SW 3.2 mph 5.0 mph 98 % 0.0 in
23:19 1.1 °F 1.0 °F 989.1 in Calm   5.0 mph 98 % 0.0 in
23:24 1.1 °F 1.0 °F 989.1 in Calm     98 % 0.0 in
23:29 1.1 °F 1.0 °F 989.1 in Calm     98 % 0.0 in
23:34 1.0 °F 1.0 °F 989.1 in Calm   1.8 mph 98 % 0.0 in
23:39 1.1 °F 1.0 °F 989.1 in Calm   1.8 mph 98 % 0.0 in
23:44 1.1 °F 1.0 °F 989.1 in Calm     98 % 0.0 in
23:49 1.1 °F 1.0 °F 989.1 in Calm     98 % 0.0 in
23:54 1.1 °F 1.0 °F 989.1 in SSW 3.5 mph 4.3 mph 98 % 0.0 in
23:59 1.1 °F 1.0 °F 989.1 in SSW 3.2 mph 5.0 mph 98 % 0.0 in
Le Gheer Warneton
Courtoisie de Weather Underground - 2.25 mb

Mise a jour : 25/02/2018 14:56:11
Généré par Cumulus 1.9.4 (1099)